Time,TemperatureF,DewpointF,PressureIn,WindDirection,WindDirectionDegrees,WindSpeedMPH,WindSpeedGustMPH,Humidity,HourlyPrecipIn,Conditions,Clouds,dailyrainin,SoftwareType,DateUTC
2013-04-05 00:03:00,31.0,31.0,29.84,East,87,0.0,0.0,98,0.00,,,0.58,,2013-04-05 04:03:00,
2013-04-05 00:12:00,31.0,31.0,29.84,East,87,0.0,0.0,98,0.00,,,0.58,,2013-04-05 04:12:00,
2013-04-05 00:23:00,31.0,31.0,29.84,East,87,0.0,0.0,98,0.00,,,0.58,,2013-04-05 04:23:00,
2013-04-05 00:33:00,31.0,31.0,29.84,East,87,0.0,0.0,98,0.00,,,0.58,,2013-04-05 04:33:00,
2013-04-05 00:42:00,31.0,31.0,29.84,East,87,0.0,0.0,98,0.00,,,0.58,,2013-04-05 04:42:00,
2013-04-05 00:52:00,31.0,31.0,29.84,East,87,0.0,0.0,98,0.00,,,0.58,,2013-04-05 04:52:00,
2013-04-05 01:02:00,31.0,31.0,29.85,East,87,0.0,0.0,98,0.00,,,0.58,,2013-04-05 05:02:00,
2013-04-05 01:13:00,31.0,31.0,29.85,East,87,0.0,0.0,98,0.00,,,0.58,,2013-04-05 05:13:00,
2013-04-05 01:22:00,31.0,31.0,29.85,East,87,0.0,0.0,98,0.00,,,0.58,,2013-04-05 05:22:00,
2013-04-05 01:32:00,32.0,32.0,29.85,East,87,0.0,0.0,98,0.00,,,0.58,,2013-04-05 05:32:00,
2013-04-05 01:42:00,32.0,32.0,29.85,East,87,0.0,0.0,98,0.00,,,0.58,,2013-04-05 05:42:00,
2013-04-05 01:53:00,32.0,32.0,29.84,East,87,0.0,0.0,98,0.00,,,0.58,,2013-04-05 05:53:00,
2013-04-05 02:02:00,32.0,32.0,29.85,East,87,0.0,0.0,98,0.00,,,0.58,,2013-04-05 06:02:00,
2013-04-05 02:12:00,32.0,32.0,29.85,East,87,0.0,0.0,98,0.00,,,0.58,,2013-04-05 06:12:00,
2013-04-05 02:22:00,32.0,32.0,29.84,East,87,0.0,0.0,98,0.00,,,0.58,,2013-04-05 06:22:00,
2013-04-05 02:32:00,32.0,32.0,29.84,East,87,0.0,0.0,98,0.00,,,0.58,,2013-04-05 06:32:00,
2013-04-05 02:42:00,32.0,32.0,29.84,East,87,0.0,0.0,98,0.00,,,0.58,,2013-04-05 06:42:00,
2013-04-05 02:52:00,32.0,32.0,29.83,East,87,0.0,0.0,98,0.00,,,0.58,,2013-04-05 06:52:00,
2013-04-05 03:03:00,32.0,32.0,29.83,East,87,0.0,0.0,98,0.00,,,0.58,,2013-04-05 07:03:00,
2013-04-05 03:12:00,32.0,32.0,29.83,East,87,0.0,0.0,98,0.00,,,0.58,,2013-04-05 07:12:00,
2013-04-05 03:22:00,32.0,32.0,29.83,East,87,0.0,0.0,98,0.00,,,0.58,,2013-04-05 07:22:00,
2013-04-05 03:32:00,32.0,32.0,29.84,East,87,0.0,0.0,98,0.00,,,0.58,,2013-04-05 07:32:00,
2013-04-05 03:42:00,32.0,32.0,29.84,East,87,0.0,0.0,98,0.00,,,0.58,,2013-04-05 07:42:00,
2013-04-05 03:53:00,32.0,32.0,29.83,East,87,0.0,0.0,98,0.00,,,0.58,,2013-04-05 07:53:00,
2013-04-05 04:02:00,32.0,32.0,29.83,East,87,0.0,0.0,98,0.00,,,0.58,,2013-04-05 08:02:00,
2013-04-05 04:13:00,32.0,32.0,29.83,East,87,0.0,0.0,98,0.00,,,0.58,,2013-04-05 08:13:00,
2013-04-05 04:22:00,32.0,32.0,29.83,East,87,0.0,0.0,98,0.00,,,0.58,,2013-04-05 08:22:00,
2013-04-05 04:32:00,33.0,32.0,29.82,East,87,0.0,0.0,98,0.00,,,0.58,,2013-04-05 08:32:00,
2013-04-05 04:43:00,33.0,32.0,29.82,East,87,0.0,0.0,98,0.00,,,0.58,,2013-04-05 08:43:00,
2013-04-05 04:52:00,34.0,34.0,29.82,East,87,0.0,0.0,98,0.00,,,0.58,,2013-04-05 08:52:00,
2013-04-05 05:02:00,34.0,34.0,29.81,East,87,0.0,0.0,98,0.00,,,0.58,,2013-04-05 09:02:00,
2013-04-05 05:12:00,34.0,34.0,29.81,East,87,0.0,0.0,98,0.00,,,0.58,,2013-04-05 09:12:00,
2013-04-05 05:22:00,34.0,34.0,29.80,NW,311,0.0,0.0,99,0.00,,,0.58,,2013-04-05 09:22:00,
2013-04-05 05:33:00,34.0,34.0,29.80,WSW,256,0.0,0.0,99,0.00,,,0.58,,2013-04-05 09:33:00,
2013-04-05 05:43:00,34.0,34.0,29.80,WSW,256,0.0,0.0,99,0.00,,,0.58,,2013-04-05 09:43:00,
2013-04-05 05:53:00,34.0,34.0,29.80,NNW,329,0.0,0.0,99,0.00,,,0.58,,2013-04-05 09:53:00,
2013-04-05 06:03:00,35.0,34.0,29.81,WNW,299,0.0,0.0,98,0.00,,,0.58,,2013-04-05 10:03:00,
2013-04-05 06:13:00,35.0,34.0,29.81,WNW,299,0.0,0.0,98,0.00,,,0.58,,2013-04-05 10:13:00,
2013-04-05 06:23:00,35.0,34.0,29.80,NW,309,6.0,10.0,98,0.00,,,0.58,,2013-04-05 10:23:00,
2013-04-05 06:33:00,35.0,35.0,29.80,NW,319,8.0,12.0,99,0.00,,,0.58,,2013-04-05 10:33:00,
2013-04-05 06:43:00,35.0,35.0,29.80,NW,319,8.0,12.0,99,0.00,,,0.58,,2013-04-05 10:43:00,
2013-04-05 06:53:00,35.0,35.0,29.80,WNW,298,0.0,11.0,99,0.00,,,0.58,,2013-04-05 10:53:00,
2013-04-05 07:03:00,35.0,35.0,29.81,WNW,296,0.0,8.0,99,0.00,,,0.58,,2013-04-05 11:03:00,
2013-04-05 07:13:00,35.0,35.0,29.81,WNW,296,0.0,8.0,99,0.00,,,0.58,,2013-04-05 11:13:00,
2013-04-05 07:22:00,34.0,34.0,29.83,WNW,294,1.0,8.0,98,0.00,,,0.56,,2013-04-05 11:22:00,
2013-04-05 07:33:00,34.0,34.0,29.83,NW,310,4.0,6.0,98,0.00,,,0.56,,2013-04-05 11:33:00,
2013-04-05 07:42:00,34.0,34.0,29.83,NW,310,4.0,6.0,98,0.00,,,0.56,,2013-04-05 11:42:00,
2013-04-05 07:52:00,34.0,34.0,29.84,NW,305,0.0,6.0,98,0.00,,,0.56,,2013-04-05 11:52:00,
2013-04-05 08:02:00,34.0,34.0,29.86,WNW,298,0.0,5.0,98,0.00,,,0.56,,2013-04-05 12:02:00,
2013-04-05 08:12:00,34.0,34.0,29.86,WNW,298,0.0,5.0,98,0.00,,,0.56,,2013-04-05 12:12:00,
2013-04-05 08:22:00,35.0,34.0,29.87,North,351,0.0,5.0,98,0.00,,,0.56,,2013-04-05 12:22:00,
2013-04-05 08:32:00,35.0,34.0,29.88,NNW,335,1.0,3.0,98,0.00,,,0.56,,2013-04-05 12:32:00,
2013-04-05 08:42:00,35.0,34.0,29.88,NNW,335,1.0,3.0,98,0.00,,,0.56,,2013-04-05 12:42:00,
2013-04-05 08:52:00,35.0,34.0,29.88,North,11,0.0,3.0,98,0.00,,,0.56,,2013-04-05 12:52:00,
2013-04-05 09:02:00,35.0,34.0,29.88,NNE,19,0.0,4.0,97,0.00,,,0.56,,2013-04-05 13:02:00,
2013-04-05 09:12:00,35.0,34.0,29.88,NNE,19,0.0,4.0,97,0.00,,,0.56,,2013-04-05 13:12:00,
2013-04-05 09:23:00,35.0,34.0,29.88,NE,44,1.0,5.0,98,0.00,,,0.54,,2013-04-05 13:23:00,
2013-04-05 09:32:00,37.0,36.0,29.89,NNW,335,3.0,7.0,98,0.00,,,0.54,,2013-04-05 13:32:00,
2013-04-05 09:42:00,37.0,36.0,29.89,NNW,335,3.0,7.0,98,0.00,,,0.54,,2013-04-05 13:42:00,
2013-04-05 09:52:00,39.0,38.0,29.88,ENE,65,1.0,6.0,97,0.00,,,0.54,,2013-04-05 13:52:00,
2013-04-05 10:03:00,40.0,39.0,29.89,North,349,2.0,7.0,95,0.00,,,0.54,,2013-04-05 14:03:00,
2013-04-05 10:12:00,40.0,39.0,29.89,North,349,2.0,7.0,95,0.00,,,0.54,,2013-04-05 14:12:00,
2013-04-05 10:23:00,40.0,38.0,29.90,NNE,21,1.0,6.0,93,0.00,,,0.54,,2013-04-05 14:23:00,
2013-04-05 10:37:00,41.0,39.0,29.90,North,5,1.0,9.0,93,0.00,,,0.54,,2013-04-05 14:37:00,
2013-04-05 10:43:00,41.0,39.0,29.90,North,5,1.0,9.0,93,0.00,,,0.54,,2013-04-05 14:43:00,
2013-04-05 10:54:00,43.0,41.0,29.91,NNE,24,1.0,8.0,91,0.00,,,0.54,,2013-04-05 14:54:00,
2013-04-05 11:02:00,44.0,40.0,29.91,NE,37,0.0,6.0,87,0.00,,,0.54,,2013-04-05 15:02:00,
2013-04-05 11:13:00,44.0,40.0,29.91,NE,37,0.0,6.0,87,0.00,,,0.54,,2013-04-05 15:13:00,
2013-04-05 11:23:00,46.0,42.0,29.91,ESE,111,0.0,6.0,87,0.00,,,0.52,,2013-04-05 15:23:00,
2013-04-05 11:33:00,46.0,41.0,29.92,North,349,0.0,7.0,83,0.00,,,0.52,,2013-04-05 15:33:00,
2013-04-05 11:43:00,46.0,41.0,29.92,North,349,0.0,7.0,83,0.00,,,0.52,,2013-04-05 15:43:00,
2013-04-05 11:54:00,48.0,45.0,29.92,NNW,334,0.0,4.0,88,0.00,,,0.52,,2013-04-05 15:54:00,
2013-04-05 12:03:00,49.0,42.0,29.92,NNW,328,1.0,6.0,78,0.00,,,0.52,,2013-04-05 16:03:00,
2013-04-05 12:23:00,50.0,42.0,29.92,North,360,0.0,7.0,75,0.00,,,0.50,,2013-04-05 16:23:00,
2013-04-05 12:33:00,50.0,43.0,29.92,NW,316,3.0,8.0,76,0.00,,,0.50,,2013-04-05 16:33:00,
2013-04-05 12:42:00,50.0,43.0,29.92,NW,316,3.0,8.0,76,0.00,,,0.50,,2013-04-05 16:42:00,
2013-04-05 12:53:00,52.0,44.0,29.92,NW,320,0.0,4.0,73,0.00,,,0.50,,2013-04-05 16:53:00,
2013-04-05 13:03:00,51.0,42.0,29.92,NNE,22,1.0,5.0,72,0.00,,,0.50,,2013-04-05 17:03:00,
2013-04-05 13:13:00,51.0,42.0,29.92,NNE,22,1.0,5.0,72,0.00,,,0.50,,2013-04-05 17:13:00,
2013-04-05 13:23:00,53.0,43.0,29.92,North,5,1.0,7.0,70,0.00,,,0.40,,2013-04-05 17:23:00,
2013-04-05 13:32:00,52.0,43.0,29.92,WNW,294,1.0,5.0,70,0.00,,,0.40,,2013-04-05 17:32:00,
2013-04-05 13:45:00,52.0,43.0,29.92,WNW,294,1.0,5.0,70,0.00,,,0.40,,2013-04-05 17:45:00,
2013-04-05 13:53:00,50.0,43.0,29.91,SW,218,0.0,6.0,78,0.00,,,0.40,,2013-04-05 17:53:00,
2013-04-05 14:02:00,51.0,43.0,29.91,SSW,211,3.0,9.0,75,0.00,,,0.40,,2013-04-05 18:02:00,
2013-04-05 14:13:00,51.0,43.0,29.91,SSW,211,3.0,9.0,75,0.00,,,0.40,,2013-04-05 18:13:00,
2013-04-05 14:23:00,51.0,43.0,29.91,WSW,242,2.0,5.0,74,0.00,,,0.32,,2013-04-05 18:23:00,
2013-04-05 14:33:00,54.0,46.0,29.91,WSW,252,1.0,4.0,74,0.00,,,0.32,,2013-04-05 18:33:00,
2013-04-05 14:43:00,54.0,46.0,29.91,WSW,252,1.0,4.0,74,0.00,,,0.32,,2013-04-05 18:43:00,
2013-04-05 14:53:00,54.0,43.0,29.91,SW,227,3.0,8.0,67,0.00,,,0.32,,2013-04-05 18:53:00,
2013-04-05 15:02:00,55.0,41.0,29.91,West,261,0.0,3.0,59,0.00,,,0.32,,2013-04-05 19:02:00,
2013-04-05 15:13:00,55.0,41.0,29.91,West,261,0.0,3.0,59,0.00,,,0.32,,2013-04-05 19:13:00,
2013-04-05 15:23:00,55.0,41.0,29.90,SSE,166,2.0,4.0,58,0.00,,,0.26,,2013-04-05 19:23:00,
2013-04-05 15:33:00,55.0,41.0,29.90,SSE,166,2.0,4.0,58,0.00,,,0.26,,2013-04-05 19:33:00,
2013-04-05 15:42:00,55.0,41.0,29.90,SSE,166,2.0,4.0,58,0.00,,,0.26,,2013-04-05 19:42:00,
2013-04-05 15:53:00,55.0,41.0,29.90,SSE,166,2.0,4.0,58,0.00,,,0.26,,2013-04-05 19:53:00,
2013-04-05 16:22:00,56.0,38.0,29.91,NW,315,1.0,6.0,50,0.00,,,0.26,,2013-04-05 20:22:00,
2013-04-05 16:33:00,56.0,38.0,29.91,NW,315,1.0,6.0,50,0.00,,,0.26,,2013-04-05 20:33:00,
2013-04-05 16:42:00,56.0,38.0,29.91,NW,315,1.0,6.0,50,0.00,,,0.26,,2013-04-05 20:42:00,
2013-04-05 16:52:00,57.0,35.0,29.91,NNW,327,0.0,4.0,43,0.00,,,0.17,,2013-04-05 20:52:00,
2013-04-05 17:03:00,58.0,36.0,29.91,North,355,1.0,4.0,44,0.00,,,0.17,,2013-04-05 21:03:00,
2013-04-05 17:13:00,58.0,36.0,29.91,North,355,1.0,4.0,44,0.00,,,0.17,,2013-04-05 21:13:00,
2013-04-05 17:24:00,56.0,34.0,29.91,NW,317,2.0,9.0,44,0.00,,,0.12,,2013-04-05 21:24:00,
2013-04-05 17:33:00,56.0,36.0,29.92,North,349,2.0,7.0,47,0.00,,,0.12,,2013-04-05 21:33:00,
2013-04-05 17:43:00,56.0,36.0,29.92,North,349,2.0,7.0,47,0.00,,,0.12,,2013-04-05 21:43:00,
2013-04-05 17:55:00,55.0,34.0,29.93,NW,313,1.0,5.0,45,0.00,,,0.12,,2013-04-05 21:55:00,
2013-04-05 18:03:00,54.0,35.0,29.93,WNW,295,1.0,5.0,48,0.00,,,0.12,,2013-04-05 22:03:00,
2013-04-05 18:13:00,54.0,35.0,29.93,WNW,295,1.0,5.0,48,0.00,,,0.12,,2013-04-05 22:13:00,
2013-04-05 18:23:00,54.0,33.0,29.93,NW,321,3.0,9.0,45,0.00,,,0.06,,2013-04-05 22:23:00,
2013-04-05 18:33:00,53.0,36.0,29.94,WSW,248,0.0,3.0,53,0.00,,,0.06,,2013-04-05 22:33:00,
2013-04-05 18:43:00,53.0,36.0,29.94,WSW,248,0.0,3.0,53,0.00,,,0.06,,2013-04-05 22:43:00,
2013-04-05 18:53:00,52.0,37.0,29.94,WSW,240,2.0,6.0,56,0.00,,,0.06,,2013-04-05 22:53:00,
2013-04-05 19:03:00,50.0,36.0,29.95,West,260,2.0,6.0,58,0.00,,,0.06,,2013-04-05 23:03:00,
2013-04-05 19:12:00,50.0,36.0,29.95,West,260,2.0,6.0,58,0.00,,,0.06,,2013-04-05 23:12:00,
2013-04-05 19:23:00,50.0,37.0,29.96,West,267,1.0,6.0,60,0.00,,,0.03,,2013-04-05 23:23:00,
2013-04-05 19:33:00,48.0,36.0,29.96,WSW,248,1.0,6.0,62,0.00,,,0.03,,2013-04-05 23:33:00,
2013-04-05 19:42:00,48.0,36.0,29.96,WSW,248,1.0,6.0,62,0.00,,,0.03,,2013-04-05 23:42:00,
2013-04-05 19:53:00,47.0,35.0,29.96,West,273,2.0,6.0,64,0.00,,,0.03,,2013-04-05 23:53:00,
2013-04-05 20:02:00,46.0,35.0,29.97,West,268,0.0,4.0,66,0.00,,,0.03,,2013-04-06 00:02:00,
2013-04-05 20:13:00,46.0,35.0,29.97,West,268,0.0,4.0,66,0.00,,,0.03,,2013-04-06 00:13:00,
2013-04-05 20:23:00,45.0,34.0,29.98,WNW,286,1.0,5.0,65,0.00,,,0.02,,2013-04-06 00:23:00,
2013-04-05 20:33:00,45.0,34.0,29.98,NW,314,0.0,5.0,65,0.00,,,0.02,,2013-04-06 00:33:00,
2013-04-05 20:42:00,45.0,34.0,29.98,NW,314,0.0,5.0,65,0.00,,,0.02,,2013-04-06 00:42:00,
2013-04-05 20:52:00,45.0,34.0,29.98,NW,305,0.0,2.0,65,0.00,,,0.02,,2013-04-06 00:52:00,
2013-04-05 21:02:00,44.0,33.0,29.99,WNW,300,1.0,7.0,66,0.00,,,0.02,,2013-04-06 01:02:00,
2013-04-05 21:13:00,44.0,34.0,30.00,NNW,330,0.0,6.0,68,0.00,,,0.00,,2013-04-06 01:13:00,
2013-04-05 21:23:00,44.0,34.0,30.00,NNW,330,0.0,6.0,68,0.00,,,0.00,,2013-04-06 01:23:00,
2013-04-05 21:33:00,43.0,33.0,30.00,NW,320,5.0,9.0,68,0.00,,,0.00,,2013-04-06 01:33:00,
2013-04-05 21:43:00,43.0,33.0,30.00,NW,320,5.0,9.0,68,0.00,,,0.00,,2013-04-06 01:43:00,
2013-04-05 21:53:00,44.0,34.0,30.00,NNW,333,6.0,10.0,67,0.00,,,0.00,,2013-04-06 01:53:00,
2013-04-05 22:02:00,44.0,34.0,30.00,NW,318,5.0,13.0,68,0.00,,,0.00,,2013-04-06 02:02:00,
2013-04-05 22:12:00,44.0,34.0,30.00,NW,318,5.0,13.0,68,0.00,,,0.00,,2013-04-06 02:12:00,
2013-04-05 22:23:00,43.0,33.0,30.01,NW,310,3.0,8.0,68,0.00,,,0.00,,2013-04-06 02:23:00,
2013-04-05 22:32:00,43.0,33.0,30.01,WNW,293,1.0,9.0,67,0.00,,,0.00,,2013-04-06 02:32:00,
2013-04-05 22:42:00,43.0,33.0,30.01,WNW,293,1.0,9.0,67,0.00,,,0.00,,2013-04-06 02:42:00,
2013-04-05 22:53:00,43.0,32.0,30.01,NW,306,1.0,5.0,65,0.00,,,0.00,,2013-04-06 02:53:00,
2013-04-05 23:03:00,43.0,32.0,30.02,North,351,0.0,5.0,66,0.00,,,0.00,,2013-04-06 03:03:00,
2013-04-05 23:13:00,43.0,32.0,30.02,North,351,0.0,5.0,66,0.00,,,0.00,,2013-04-06 03:13:00,
2013-04-05 23:22:00,43.0,32.0,30.02,NNW,333,3.0,8.0,66,0.00,,,0.00,,2013-04-06 03:22:00,
2013-04-05 23:34:00,43.0,32.0,30.02,NNW,346,3.0,9.0,66,0.00,,,0.00,,2013-04-06 03:34:00,
2013-04-05 23:43:00,43.0,32.0,30.02,NNW,346,3.0,9.0,66,0.00,,,0.00,,2013-04-06 03:43:00,
2013-04-05 23:54:00,44.0,33.0,30.02,North,351,1.0,10.0,64,0.00,,,0.00,,2013-04-06 03:54:00,